sensor_id;sensor_type;location;lat;lon;timestamp;P1;P2;P0
23240;PMS7003;11789;53.482;9.862;2023-10-08T00:00:48;3.50;3.50;2.00
23240;PMS7003;11789;53.482;9.862;2023-10-08T00:03:15;3.00;3.00;3.00
23240;PMS7003;11789;53.482;9.862;2023-10-08T00:05:45;5.00;3.00;2.00
23240;PMS7003;11789;53.482;9.862;2023-10-08T00:08:11;2.75;2.75;2.00
23240;PMS7003;11789;53.482;9.862;2023-10-08T00:10:39;5.50;4.00;2.75
23240;PMS7003;11789;53.482;9.862;2023-10-08T00:13:10;5.00;4.00;2.00
23240;PMS7003;11789;53.482;9.862;2023-10-08T00:15:38;7.75;5.00;3.00
23240;PMS7003;11789;53.482;9.862;2023-10-08T00:18:16;3.75;3.75;3.00
23240;PMS7003;11789;53.482;9.862;2023-10-08T00:20:42;3.75;3.75;3.00
23240;PMS7003;11789;53.482;9.862;2023-10-08T00:23:11;4.00;4.00;3.00
23240;PMS7003;11789;53.482;9.862;2023-10-08T00:25:37;4.00;4.00;3.00
23240;PMS7003;11789;53.482;9.862;2023-10-08T00:28:08;4.00;4.00;3.00
23240;PMS7003;11789;53.482;9.862;2023-10-08T00:30:41;3.00;3.00;2.25
23240;PMS7003;11789;53.482;9.862;2023-10-08T00:33:07;5.50;4.00;3.00
23240;PMS7003;11789;53.482;9.862;2023-10-08T00:35:41;4.00;1.75;1.75
23240;PMS7003;11789;53.482;9.862;2023-10-08T00:38:10;3.50;3.50;2.25
23240;PMS7003;11789;53.482;9.862;2023-10-08T00:40:48;4.00;4.00;3.00
23240;PMS7003;11789;53.482;9.862;2023-10-08T00:43:33;3.75;3.00;3.00
23240;PMS7003;11789;53.482;9.862;2023-10-08T00:46:03;4.00;4.00;3.00
23240;PMS7003;11789;53.482;9.862;2023-10-08T00:48:31;7.25;3.75;2.75
23240;PMS7003;11789;53.482;9.862;2023-10-08T00:51:03;4.00;3.25;2.75
23240;PMS7003;11789;53.482;9.862;2023-10-08T00:53:55;4.25;3.75;3.00
23240;PMS7003;11789;53.482;9.862;2023-10-08T00:56:34;5.00;3.00;2.00
23240;PMS7003;11789;53.482;9.862;2023-10-08T00:59:15;3.75;3.25;2.25
23240;PMS7003;11789;53.482;9.862;2023-10-08T01:01:42;8.75;4.00;3.00
23240;PMS7003;11789;53.482;9.862;2023-10-08T01:04:15;3.00;3.00;2.00
23240;PMS7003;11789;53.482;9.862;2023-10-08T01:06:41;4.00;4.00;2.00
23240;PMS7003;11789;53.482;9.862;2023-10-08T01:09:07;4.50;4.00;2.50
23240;PMS7003;11789;53.482;9.862;2023-10-08T01:11:43;6.50;3.00;2.00
23240;PMS7003;11789;53.482;9.862;2023-10-08T01:14:18;7.00;4.00;2.00
23240;PMS7003;11789;53.482;9.862;2023-10-08T01:16:46;2.00;2.00;2.00
23240;PMS7003;11789;53.482;9.862;2023-10-08T01:19:17;7.00;4.00;3.00
23240;PMS7003;11789;53.482;9.862;2023-10-08T01:21:44;3.75;2.00;1.00
23240;PMS7003;11789;53.482;9.862;2023-10-08T01:24:10;3.50;3.50;2.25
23240;PMS7003;11789;53.482;9.862;2023-10-08T01:26:39;3.50;3.00;2.00
23240;PMS7003;11789;53.482;9.862;2023-10-08T01:29:08;5.50;3.00;2.50
23240;PMS7003;11789;53.482;9.862;2023-10-08T01:31:34;6.25;3.00;2.00
23240;PMS7003;11789;53.482;9.862;2023-10-08T01:34:02;4.00;2.50;2.00
23240;PMS7003;11789;53.482;9.862;2023-10-08T01:36:30;2.25;2.25;2.00
23240;PMS7003;11789;53.482;9.862;2023-10-08T01:38:56;4.50;3.00;2.00
23240;PMS7003;11789;53.482;9.862;2023-10-08T01:41:22;3.00;3.00;2.00
23240;PMS7003;11789;53.482;9.862;2023-10-08T01:43:55;5.25;2.25;1.75
23240;PMS7003;11789;53.482;9.862;2023-10-08T01:46:23;2.00;2.00;1.25
23240;PMS7003;11789;53.482;9.862;2023-10-08T01:48:51;3.00;1.00;1.00
23240;PMS7003;11789;53.482;9.862;2023-10-08T01:51:21;4.50;3.75;2.50
23240;PMS7003;11789;53.482;9.862;2023-10-08T01:54:09;3.50;3.50;3.00
23240;PMS7003;11789;53.482;9.862;2023-10-08T01:56:39;3.00;3.00;2.00
23240;PMS7003;11789;53.482;9.862;2023-10-08T01:59:09;4.25;3.00;2.00
23240;PMS7003;11789;53.482;9.862;2023-10-08T02:01:42;4.50;4.50;3.00
23240;PMS7003;11789;53.482;9.862;2023-10-08T02:04:10;3.00;3.00;2.00
23240;PMS7003;11789;53.482;9.862;2023-10-08T02:06:37;3.00;3.00;2.00
23240;PMS7003;11789;53.482;9.862;2023-10-08T02:09:05;3.00;3.00;2.00
23240;PMS7003;11789;53.482;9.862;2023-10-08T02:11:46;2.00;2.00;1.50
23240;PMS7003;11789;53.482;9.862;2023-10-08T02:14:18;2.25;2.25;2.00
23240;PMS7003;11789;53.482;9.862;2023-10-08T02:16:48;3.25;3.25;2.00
23240;PMS7003;11789;53.482;9.862;2023-10-08T02:19:14;4.25;3.00;2.00
23240;PMS7003;11789;53.482;9.862;2023-10-08T02:21:46;2.00;2.00;1.75
23240;PMS7003;11789;53.482;9.862;2023-10-08T02:24:11;4.00;2.00;2.00
23240;PMS7003;11789;53.482;9.862;2023-10-08T02:26:38;3.75;2.00;1.00
23240;PMS7003;11789;53.482;9.862;2023-10-08T02:29:04;3.50;3.50;2.25
23240;PMS7003;11789;53.482;9.862;2023-10-08T02:31:38;3.25;2.50;2.00
23240;PMS7003;11789;53.482;9.862;2023-10-08T02:34:06;6.00;3.00;2.00
23240;PMS7003;11789;53.482;9.862;2023-10-08T02:36:38;5.50;3.00;2.00
23240;PMS7003;11789;53.482;9.862;2023-10-08T02:39:08;8.00;2.00;1.25
23240;PMS7003;11789;53.482;9.862;2023-10-08T02:41:46;3.00;3.00;2.50
23240;PMS7003;11789;53.482;9.862;2023-10-08T02:44:13;5.00;3.25;2.00
23240;PMS7003;11789;53.482;9.862;2023-10-08T02:46:46;6.50;3.50;2.00
23240;PMS7003;11789;53.482;9.862;2023-10-08T02:49:13;2.75;2.75;2.00
23240;PMS7003;11789;53.482;9.862;2023-10-08T02:51:51;3.25;3.25;3.00
23240;PMS7003;11789;53.482;9.862;2023-10-08T02:54:21;4.00;4.00;3.00
23240;PMS7003;11789;53.482;9.862;2023-10-08T02:56:57;3.50;3.50;2.00
23240;PMS7003;11789;53.482;9.862;2023-10-08T02:59:30;3.25;3.25;2.25
23240;PMS7003;11789;53.482;9.862;2023-10-08T03:02:15;3.00;3.00;2.50
23240;PMS7003;11789;53.482;9.862;2023-10-08T03:04:49;3.00;3.00;2.00
23240;PMS7003;11789;53.482;9.862;2023-10-08T03:07:17;3.50;3.50;3.00
23240;PMS7003;11789;53.482;9.862;2023-10-08T03:09:50;5.25;3.75;2.00
23240;PMS7003;11789;53.482;9.862;2023-10-08T03:12:28;3.75;3.00;2.00
23240;PMS7003;11789;53.482;9.862;2023-10-08T03:14:57;4.50;3.50;2.50
23240;PMS7003;11789;53.482;9.862;2023-10-08T03:17:36;4.00;2.00;2.00
23240;PMS7003;11789;53.482;9.862;2023-10-08T03:20:14;6.00;3.00;3.00
23240;PMS7003;11789;53.482;9.862;2023-10-08T03:22:59;2.00;2.00;1.50
23240;PMS7003;11789;53.482;9.862;2023-10-08T03:25:24;3.75;2.00;1.75
23240;PMS7003;11789;53.482;9.862;2023-10-08T03:27:51;3.50;3.50;2.00
23240;PMS7003;11789;53.482;9.862;2023-10-08T03:30:19;3.00;3.00;2.50
23240;PMS7003;11789;53.482;9.862;2023-10-08T03:32:45;3.50;3.50;2.00
23240;PMS7003;11789;53.482;9.862;2023-10-08T03:35:10;5.00;3.00;2.00
23240;PMS7003;11789;53.482;9.862;2023-10-08T03:37:37;3.00;3.00;2.00
23240;PMS7003;11789;53.482;9.862;2023-10-08T03:40:07;4.00;2.25;2.00
23240;PMS7003;11789;53.482;9.862;2023-10-08T03:43:07;5.00;3.00;2.50
23240;PMS7003;11789;53.482;9.862;2023-10-08T03:45:40;3.50;3.50;2.00
23240;PMS7003;11789;53.482;9.862;2023-10-08T03:48:25;2.25;2.25;2.00
23240;PMS7003;11789;53.482;9.862;2023-10-08T03:50:50;2.75;2.75;2.00
23240;PMS7003;11789;53.482;9.862;2023-10-08T03:53:31;2.25;2.25;1.50
23240;PMS7003;11789;53.482;9.862;2023-10-08T03:55:59;3.25;3.00;2.00
23240;PMS7003;11789;53.482;9.862;2023-10-08T03:58:30;2.50;2.50;2.00
23240;PMS7003;11789;53.482;9.862;2023-10-08T04:00:59;3.00;3.00;2.00
23240;PMS7003;11789;53.482;9.862;2023-10-08T04:03:34;3.00;3.00;2.00
23240;PMS7003;11789;53.482;9.862;2023-10-08T04:06:20;2.00;2.00;2.00
23240;PMS7003;11789;53.482;9.862;2023-10-08T04:09:02;2.00;2.00;1.00
23240;PMS7003;11789;53.482;9.862;2023-10-08T04:11:38;1.25;1.25;1.00
23240;PMS7003;11789;53.482;9.862;2023-10-08T04:14:16;2.50;2.00;1.00
23240;PMS7003;11789;53.482;9.862;2023-10-08T04:16:42;2.50;2.00;2.00
23240;PMS7003;11789;53.482;9.862;2023-10-08T04:19:09;2.00;2.00;1.00
23240;PMS7003;11789;53.482;9.862;2023-10-08T04:21:35;1.00;1.00;1.00
23240;PMS7003;11789;53.482;9.862;2023-10-08T04:24:01;3.25;1.00;0.75
23240;PMS7003;11789;53.482;9.862;2023-10-08T04:26:31;2.00;2.00;1.00
23240;PMS7003;11789;53.482;9.862;2023-10-08T04:28:57;2.00;1.50;1.25
23240;PMS7003;11789;53.482;9.862;2023-10-08T04:31:27;1.50;1.50;1.00
23240;PMS7003;11789;53.482;9.862;2023-10-08T04:34:03;3.00;1.50;1.00
23240;PMS7003;11789;53.482;9.862;2023-10-08T04:36:48;3.75;2.00;1.50
23240;PMS7003;11789;53.482;9.862;2023-10-08T04:39:21;3.00;1.75;1.00
23240;PMS7003;11789;53.482;9.862;2023-10-08T04:41:47;1.25;1.25;1.00
23240;PMS7003;11789;53.482;9.862;2023-10-08T04:44:13;2.00;2.00;2.00
23240;PMS7003;11789;53.482;9.862;2023-10-08T04:46:41;1.50;1.50;1.00
23240;PMS7003;11789;53.482;9.862;2023-10-08T04:49:16;3.00;2.00;1.00
23240;PMS7003;11789;53.482;9.862;2023-10-08T04:52:04;1.50;1.25;1.00
23240;PMS7003;11789;53.482;9.862;2023-10-08T04:54:36;3.00;2.00;1.00
23240;PMS7003;11789;53.482;9.862;2023-10-08T04:57:05;2.75;1.00;1.00
23240;PMS7003;11789;53.482;9.862;2023-10-08T04:59:32;2.50;1.75;1.00
23240;PMS7003;11789;53.482;9.862;2023-10-08T05:02:01;1.75;1.50;0.75
23240;PMS7003;11789;53.482;9.862;2023-10-08T05:04:44;1.75;1.75;1.25
23240;PMS7003;11789;53.482;9.862;2023-10-08T05:07:28;1.50;1.50;1.00
23240;PMS7003;11789;53.482;9.862;2023-10-08T05:10:12;1.00;1.00;1.00
23240;PMS7003;11789;53.482;9.862;2023-10-08T05:12:51;2.75;2.75;1.25
23240;PMS7003;11789;53.482;9.862;2023-10-08T05:15:30;3.00;2.00;1.00
23240;PMS7003;11789;53.482;9.862;2023-10-08T05:18:02;1.00;1.00;1.00
23240;PMS7003;11789;53.482;9.862;2023-10-08T05:20:54;2.75;1.00;1.00
23240;PMS7003;11789;53.482;9.862;2023-10-08T05:23:39;1.00;1.00;1.00
23240;PMS7003;11789;53.482;9.862;2023-10-08T05:26:18;2.50;1.00;1.00
23240;PMS7003;11789;53.482;9.862;2023-10-08T05:28:56;1.00;1.00;1.00
23240;PMS7003;11789;53.482;9.862;2023-10-08T05:31:47;1.50;1.50;1.00
23240;PMS7003;11789;53.482;9.862;2023-10-08T05:34:18;2.00;2.00;1.00
23240;PMS7003;11789;53.482;9.862;2023-10-08T05:36:48;1.25;1.25;1.00
23240;PMS7003;11789;53.482;9.862;2023-10-08T05:39:36;1.25;1.25;1.25
23240;PMS7003;11789;53.482;9.862;2023-10-08T05:42:05;1.00;1.00;0.00
23240;PMS7003;11789;53.482;9.862;2023-10-08T05:44:56;2.50;1.00;1.00
23240;PMS7003;11789;53.482;9.862;2023-10-08T05:47:34;1.00;1.00;1.00
23240;PMS7003;11789;53.482;9.862;2023-10-08T05:50:01;5.00;1.25;1.00
23240;PMS7003;11789;53.482;9.862;2023-10-08T05:52:44;1.00;1.00;1.00
23240;PMS7003;11789;53.482;9.862;2023-10-08T05:55:23;2.00;2.00;1.25
23240;PMS7003;11789;53.482;9.862;2023-10-08T05:57:58;1.50;1.50;1.00
23240;PMS7003;11789;53.482;9.862;2023-10-08T06:00:50;2.50;1.00;1.00
23240;PMS7003;11789;53.482;9.862;2023-10-08T06:03:16;1.00;1.00;1.00
23240;PMS7003;11789;53.482;9.862;2023-10-08T06:06:02;3.75;1.00;1.00
23240;PMS7003;11789;53.482;9.862;2023-10-08T06:08:54;1.25;1.00;1.00
23240;PMS7003;11789;53.482;9.862;2023-10-08T06:11:35;2.75;2.00;1.00
23240;PMS7003;11789;53.482;9.862;2023-10-08T06:14:21;2.75;2.75;2.00
23240;PMS7003;11789;53.482;9.862;2023-10-08T06:17:07;1.25;1.00;1.00
23240;PMS7003;11789;53.482;9.862;2023-10-08T06:19:49;3.00;1.00;1.00
23240;PMS7003;11789;53.482;9.862;2023-10-08T06:22:18;1.25;1.25;1.00
23240;PMS7003;11789;53.482;9.862;2023-10-08T06:24:44;1.25;1.25;1.00
23240;PMS7003;11789;53.482;9.862;2023-10-08T06:27:09;3.00;1.00;1.00
23240;PMS7003;11789;53.482;9.862;2023-10-08T06:29:41;2.00;2.00;1.00
23240;PMS7003;11789;53.482;9.862;2023-10-08T06:32:09;4.00;2.25;1.25
23240;PMS7003;11789;53.482;9.862;2023-10-08T06:34:37;1.75;1.75;1.00
23240;PMS7003;11789;53.482;9.862;2023-10-08T06:37:05;2.50;1.00;1.00
23240;PMS7003;11789;53.482;9.862;2023-10-08T06:39:31;1.25;1.25;1.00
23240;PMS7003;11789;53.482;9.862;2023-10-08T06:42:12;1.00;1.00;1.00
23240;PMS7003;11789;53.482;9.862;2023-10-08T06:44:40;2.75;2.00;1.00
23240;PMS7003;11789;53.482;9.862;2023-10-08T06:47:08;2.25;2.25;1.25
23240;PMS7003;11789;53.482;9.862;2023-10-08T06:49:35;2.00;2.00;1.50
23240;PMS7003;11789;53.482;9.862;2023-10-08T06:52:01;2.50;1.50;1.00
23240;PMS7003;11789;53.482;9.862;2023-10-08T06:54:27;1.00;1.00;1.00
23240;PMS7003;11789;53.482;9.862;2023-10-08T06:56:55;2.00;1.00;1.00
23240;PMS7003;11789;53.482;9.862;2023-10-08T06:59:21;1.00;1.00;1.00
23240;PMS7003;11789;53.482;9.862;2023-10-08T07:01:50;3.00;1.00;1.00
23240;PMS7003;11789;53.482;9.862;2023-10-08T07:04:17;1.00;1.00;1.00
23240;PMS7003;11789;53.482;9.862;2023-10-08T07:06:44;4.00;1.25;1.00
23240;PMS7003;11789;53.482;9.862;2023-10-08T07:09:12;2.75;1.00;1.00
23240;PMS7003;11789;53.482;9.862;2023-10-08T07:11:50;2.00;2.00;1.75
23240;PMS7003;11789;53.482;9.862;2023-10-08T07:14:20;2.00;2.00;1.00
23240;PMS7003;11789;53.482;9.862;2023-10-08T07:16:52;3.75;2.00;2.00
23240;PMS7003;11789;53.482;9.862;2023-10-08T07:19:20;3.00;1.25;1.00
23240;PMS7003;11789;53.482;9.862;2023-10-08T07:21:48;1.75;1.75;1.00
23240;PMS7003;11789;53.482;9.862;2023-10-08T07:24:19;2.25;2.25;2.00
23240;PMS7003;11789;53.482;9.862;2023-10-08T07:26:47;3.25;3.25;2.00
23240;PMS7003;11789;53.482;9.862;2023-10-08T07:29:15;3.00;3.00;2.00
23240;PMS7003;11789;53.482;9.862;2023-10-08T07:31:47;3.00;1.00;1.00
23240;PMS7003;11789;53.482;9.862;2023-10-08T07:34:16;2.00;2.00;1.00
23240;PMS7003;11789;53.482;9.862;2023-10-08T07:37:00;4.25;3.00;2.00
23240;PMS7003;11789;53.482;9.862;2023-10-08T07:39:25;3.00;2.00;1.50
23240;PMS7003;11789;53.482;9.862;2023-10-08T07:41:57;0.50;0.50;0.50
23240;PMS7003;11789;53.482;9.862;2023-10-08T07:44:24;2.25;2.25;1.50
23240;PMS7003;11789;53.482;9.862;2023-10-08T07:46:53;3.50;1.50;1.50
23240;PMS7003;11789;53.482;9.862;2023-10-08T07:49:19;3.00;2.50;1.50
23240;PMS7003;11789;53.482;9.862;2023-10-08T07:51:45;2.00;2.00;1.50
23240;PMS7003;11789;53.482;9.862;2023-10-08T07:54:17;2.50;0.50;0.50
23240;PMS7003;11789;53.482;9.862;2023-10-08T07:56:45;2.00;2.00;1.50
23240;PMS7003;11789;53.482;9.862;2023-10-08T07:59:11;1.50;1.50;1.25
23240;PMS7003;11789;53.482;9.862;2023-10-08T08:01:40;2.50;2.00;0.50
23240;PMS7003;11789;53.482;9.862;2023-10-08T08:04:08;0.75;0.75;0.50
23240;PMS7003;11789;53.482;9.862;2023-10-08T08:06:51;2.50;0.50;0.50
23240;PMS7003;11789;53.482;9.862;2023-10-08T08:09:18;3.75;1.50;0.50
23240;PMS7003;11789;53.482;9.862;2023-10-08T08:11:48;0.50;0.50;0.50
23240;PMS7003;11789;53.482;9.862;2023-10-08T08:14:14;0.50;0.25;0.00
23240;PMS7003;11789;53.482;9.862;2023-10-08T08:16:49;2.75;0.25;0.25
23240;PMS7003;11789;53.482;9.862;2023-10-08T08:19:15;0.00;0.00;0.00
23240;PMS7003;11789;53.482;9.862;2023-10-08T08:21:42;0.00;0.00;0.00
23240;PMS7003;11789;53.482;9.862;2023-10-08T08:24:11;0.00;0.00;0.00
23240;PMS7003;11789;53.482;9.862;2023-10-08T08:26:37;0.00;0.00;0.00
23240;PMS7003;11789;53.482;9.862;2023-10-08T08:29:26;0.00;0.00;0.00
23240;PMS7003;11789;53.482;9.862;2023-10-08T08:31:52;0.00;0.00;0.00
23240;PMS7003;11789;53.482;9.862;2023-10-08T08:34:18;2.00;0.00;0.00
23240;PMS7003;11789;53.482;9.862;2023-10-08T08:36:48;1.00;0.00;0.00
23240;PMS7003;11789;53.482;9.862;2023-10-08T08:39:15;1.00;1.00;0.00
23240;PMS7003;11789;53.482;9.862;2023-10-08T08:42:00;0.00;0.00;0.00
23240;PMS7003;11789;53.482;9.862;2023-10-08T08:44:30;2.00;0.00;0.00
23240;PMS7003;11789;53.482;9.862;2023-10-08T08:46:58;0.00;0.00;0.00
23240;PMS7003;11789;53.482;9.862;2023-10-08T08:49:29;0.00;0.00;0.00
23240;PMS7003;11789;53.482;9.862;2023-10-08T08:51:57;0.00;0.00;0.00
23240;PMS7003;11789;53.482;9.862;2023-10-08T08:54:26;0.75;0.00;0.00
23240;PMS7003;11789;53.482;9.862;2023-10-08T08:56:56;1.00;0.00;0.00
23240;PMS7003;11789;53.482;9.862;2023-10-08T08:59:31;0.00;0.00;0.00
23240;PMS7003;11789;53.482;9.862;2023-10-08T09:02:01;0.50;0.00;0.00
23240;PMS7003;11789;53.482;9.862;2023-10-08T09:04:32;0.50;0.00;0.00
23240;PMS7003;11789;53.482;9.862;2023-10-08T09:07:03;0.50;0.00;0.00
23240;PMS7003;11789;53.482;9.862;2023-10-08T09:09:32;2.25;0.00;0.00
23240;PMS7003;11789;53.482;9.862;2023-10-08T09:12:04;0.00;0.00;0.00
23240;PMS7003;11789;53.482;9.862;2023-10-08T09:14:32;1.25;0.00;0.00
23240;PMS7003;11789;53.482;9.862;2023-10-08T09:16:59;0.75;0.75;0.00
23240;PMS7003;11789;53.482;9.862;2023-10-08T09:19:25;0.00;0.00;0.00
23240;PMS7003;11789;53.482;9.862;2023-10-08T09:22:05;0.00;0.00;0.00
23240;PMS7003;11789;53.482;9.862;2023-10-08T09:24:36;0.00;0.00;0.00
23240;PMS7003;11789;53.482;9.862;2023-10-08T09:27:03;1.50;0.00;0.00
23240;PMS7003;11789;53.482;9.862;2023-10-08T09:29:36;0.00;0.00;0.00
23240;PMS7003;11789;53.482;9.862;2023-10-08T09:32:05;2.00;0.75;0.00
23240;PMS7003;11789;53.482;9.862;2023-10-08T09:34:31;0.00;0.00;0.00
23240;PMS7003;11789;53.482;9.862;2023-10-08T09:36:57;0.00;0.00;0.00
23240;PMS7003;11789;53.482;9.862;2023-10-08T09:39:28;0.00;0.00;0.00
23240;PMS7003;11789;53.482;9.862;2023-10-08T09:41:58;0.00;0.00;0.00
23240;PMS7003;11789;53.482;9.862;2023-10-08T09:44:25;0.00;0.00;0.00
23240;PMS7003;11789;53.482;9.862;2023-10-08T09:46:57;0.00;0.00;0.00
23240;PMS7003;11789;53.482;9.862;2023-10-08T09:49:31;0.00;0.00;0.00
23240;PMS7003;11789;53.482;9.862;2023-10-08T09:51:59;1.25;0.75;0.00
23240;PMS7003;11789;53.482;9.862;2023-10-08T09:54:31;1.75;0.00;0.00
23240;PMS7003;11789;53.482;9.862;2023-10-08T09:57:05;3.00;0.00;0.00
23240;PMS7003;11789;53.482;9.862;2023-10-08T09:59:32;0.00;0.00;0.00
23240;PMS7003;11789;53.482;9.862;2023-10-08T10:01:59;0.00;0.00;0.00
23240;PMS7003;11789;53.482;9.862;2023-10-08T10:04:29;0.00;0.00;0.00
23240;PMS7003;11789;53.482;9.862;2023-10-08T10:06:57;0.00;0.00;0.00
23240;PMS7003;11789;53.482;9.862;2023-10-08T10:09:26;0.75;0.75;0.00
23240;PMS7003;11789;53.482;9.862;2023-10-08T10:11:52;1.25;0.00;0.00
23240;PMS7003;11789;53.482;9.862;2023-10-08T10:14:22;0.00;0.00;0.00
23240;PMS7003;11789;53.482;9.862;2023-10-08T10:16:59;0.00;0.00;0.00
23240;PMS7003;11789;53.482;9.862;2023-10-08T10:19:34;0.00;0.00;0.00
23240;PMS7003;11789;53.482;9.862;2023-10-08T10:22:01;0.00;0.00;0.00
23240;PMS7003;11789;53.482;9.862;2023-10-08T10:24:35;0.00;0.00;0.00
23240;PMS7003;11789;53.482;9.862;2023-10-08T10:27:11;0.00;0.00;0.00
23240;PMS7003;11789;53.482;9.862;2023-10-08T10:29:42;0.75;0.00;0.00
23240;PMS7003;11789;53.482;9.862;2023-10-08T10:32:11;0.00;0.00;0.00
23240;PMS7003;11789;53.482;9.862;2023-10-08T10:34:43;0.00;0.00;0.00
23240;PMS7003;11789;53.482;9.862;2023-10-08T10:37:12;0.75;0.75;0.00
23240;PMS7003;11789;53.482;9.862;2023-10-08T10:39:57;1.75;0.00;0.00
23240;PMS7003;11789;53.482;9.862;2023-10-08T10:42:29;1.25;0.00;0.00
23240;PMS7003;11789;53.482;9.862;2023-10-08T10:44:55;1.75;0.00;0.00
23240;PMS7003;11789;53.482;9.862;2023-10-08T10:47:23;1.00;0.00;0.00
23240;PMS7003;11789;53.482;9.862;2023-10-08T10:49:52;0.00;0.00;0.00
23240;PMS7003;11789;53.482;9.862;2023-10-08T10:52:38;0.50;0.00;0.00
23240;PMS7003;11789;53.482;9.862;2023-10-08T10:55:11;0.75;0.75;0.00
23240;PMS7003;11789;53.482;9.862;2023-10-08T10:57:56;1.25;0.00;0.00
23240;PMS7003;11789;53.482;9.862;2023-10-08T11:00:29;0.75;0.25;0.25
23240;PMS7003;11789;53.482;9.862;2023-10-08T11:02:58;0.00;0.00;0.00
23240;PMS7003;11789;53.482;9.862;2023-10-08T11:05:28;0.00;0.00;0.00
23240;PMS7003;11789;53.482;9.862;2023-10-08T11:07:58;0.75;0.75;0.75
23240;PMS7003;11789;53.482;9.862;2023-10-08T11:10:32;0.00;0.00;0.00
23240;PMS7003;11789;53.482;9.862;2023-10-08T11:13:03;0.00;0.00;0.00
23240;PMS7003;11789;53.482;9.862;2023-10-08T11:15:39;0.00;0.00;0.00
23240;PMS7003;11789;53.482;9.862;2023-10-08T11:18:11;0.75;0.75;0.00
23240;PMS7003;11789;53.482;9.862;2023-10-08T11:20:38;0.50;0.50;0.00
23240;PMS7003;11789;53.482;9.862;2023-10-08T11:23:09;1.75;0.00;0.00
23240;PMS7003;11789;53.482;9.862;2023-10-08T11:25:56;0.50;0.25;0.25
23240;PMS7003;11789;53.482;9.862;2023-10-08T11:28:32;0.50;0.50;0.50
23240;PMS7003;11789;53.482;9.862;2023-10-08T11:31:07;0.25;0.25;0.00
23240;PMS7003;11789;53.482;9.862;2023-10-08T11:33:36;0.00;0.00;0.00
23240;PMS7003;11789;53.482;9.862;2023-10-08T11:36:04;0.25;0.00;0.00
23240;PMS7003;11789;53.482;9.862;2023-10-08T11:38:52;1.50;0.00;0.00
23240;PMS7003;11789;53.482;9.862;2023-10-08T11:41:25;0.00;0.00;0.00
23240;PMS7003;11789;53.482;9.862;2023-10-08T11:43:56;1.00;1.00;0.00
23240;PMS7003;11789;53.482;9.862;2023-10-08T11:49:03;0.25;0.00;0.00
23240;PMS7003;11789;53.482;9.862;2023-10-08T11:51:33;0.25;0.25;0.25
23240;PMS7003;11789;53.482;9.862;2023-10-08T11:54:00;1.00;1.00;0.00
23240;PMS7003;11789;53.482;9.862;2023-10-08T11:56:29;1.00;0.00;0.00
23240;PMS7003;11789;53.482;9.862;2023-10-08T11:58:57;0.00;0.00;0.00
23240;PMS7003;11789;53.482;9.862;2023-10-08T12:01:23;0.50;0.50;0.00
23240;PMS7003;11789;53.482;9.862;2023-10-08T12:03:50;0.75;0.00;0.00
23240;PMS7003;11789;53.482;9.862;2023-10-08T12:06:16;0.00;0.00;0.00
23240;PMS7003;11789;53.482;9.862;2023-10-08T12:08:46;0.00;0.00;0.00
23240;PMS7003;11789;53.482;9.862;2023-10-08T12:11:13;1.75;0.00;0.00
23240;PMS7003;11789;53.482;9.862;2023-10-08T12:13:39;0.50;0.50;0.00
23240;PMS7003;11789;53.482;9.862;2023-10-08T12:16:10;0.00;0.00;0.00
23240;PMS7003;11789;53.482;9.862;2023-10-08T12:18:49;0.50;0.00;0.00
23240;PMS7003;11789;53.482;9.862;2023-10-08T12:21:21;0.75;0.00;0.00
23240;PMS7003;11789;53.482;9.862;2023-10-08T12:23:47;0.25;0.25;0.00
23240;PMS7003;11789;53.482;9.862;2023-10-08T12:26:12;0.00;0.00;0.00
23240;PMS7003;11789;53.482;9.862;2023-10-08T12:28:41;0.00;0.00;0.00
23240;PMS7003;11789;53.482;9.862;2023-10-08T12:31:11;0.25;0.25;0.25
23240;PMS7003;11789;53.482;9.862;2023-10-08T12:33:37;0.00;0.00;0.00
23240;PMS7003;11789;53.482;9.862;2023-10-08T12:36:03;0.00;0.00;0.00
23240;PMS7003;11789;53.482;9.862;2023-10-08T12:38:36;0.50;0.50;0.00
23240;PMS7003;11789;53.482;9.862;2023-10-08T12:41:02;2.00;0.00;0.00
23240;PMS7003;11789;53.482;9.862;2023-10-08T12:43:36;0.00;0.00;0.00
23240;PMS7003;11789;53.482;9.862;2023-10-08T12:46:04;0.00;0.00;0.00
23240;PMS7003;11789;53.482;9.862;2023-10-08T12:48:35;0.00;0.00;0.00
23240;PMS7003;11789;53.482;9.862;2023-10-08T12:51:02;0.00;0.00;0.00
23240;PMS7003;11789;53.482;9.862;2023-10-08T12:53:30;0.00;0.00;0.00
23240;PMS7003;11789;53.482;9.862;2023-10-08T12:56:02;0.00;0.00;0.00
23240;PMS7003;11789;53.482;9.862;2023-10-08T12:58:35;0.75;0.00;0.00
23240;PMS7003;11789;53.482;9.862;2023-10-08T13:01:09;2.00;0.00;0.00
23240;PMS7003;11789;53.482;9.862;2023-10-08T13:03:36;0.50;0.50;0.00
23240;PMS7003;11789;53.482;9.862;2023-10-08T13:06:06;0.00;0.00;0.00
23240;PMS7003;11789;53.482;9.862;2023-10-08T13:08:46;0.00;0.00;0.00
23240;PMS7003;11789;53.482;9.862;2023-10-08T13:11:12;0.00;0.00;0.00
23240;PMS7003;11789;53.482;9.862;2023-10-08T13:13:38;0.25;0.25;0.00
23240;PMS7003;11789;53.482;9.862;2023-10-08T13:16:03;0.00;0.00;0.00
23240;PMS7003;11789;53.482;9.862;2023-10-08T13:18:32;0.00;0.00;0.00
23240;PMS7003;11789;53.482;9.862;2023-10-08T13:20:59;0.75;0.75;0.00
23240;PMS7003;11789;53.482;9.862;2023-10-08T13:23:25;0.00;0.00;0.00
23240;PMS7003;11789;53.482;9.862;2023-10-08T13:25:51;0.75;0.75;0.00
23240;PMS7003;11789;53.482;9.862;2023-10-08T13:28:24;0.00;0.00;0.00
23240;PMS7003;11789;53.482;9.862;2023-10-08T13:30:52;0.00;0.00;0.00
23240;PMS7003;11789;53.482;9.862;2023-10-08T13:33:22;0.00;0.00;0.00
23240;PMS7003;11789;53.482;9.862;2023-10-08T13:35:48;0.00;0.00;0.00
23240;PMS7003;11789;53.482;9.862;2023-10-08T13:38:18;0.75;0.75;0.00
23240;PMS7003;11789;53.482;9.862;2023-10-08T13:40:46;0.75;0.75;0.00
23240;PMS7003;11789;53.482;9.862;2023-10-08T13:43:28;0.50;0.50;0.00
23240;PMS7003;11789;53.482;9.862;2023-10-08T13:48:35;2.00;1.00;0.75
23240;PMS7003;11789;53.482;9.862;2023-10-08T13:51:02;0.00;0.00;0.00
23240;PMS7003;11789;53.482;9.862;2023-10-08T13:53:32;0.50;0.00;0.00
23240;PMS7003;11789;53.482;9.862;2023-10-08T13:56:01;0.00;0.00;0.00
23240;PMS7003;11789;53.482;9.862;2023-10-08T13:58:28;1.50;0.00;0.00
23240;PMS7003;11789;53.482;9.862;2023-10-08T14:00:55;3.00;0.00;0.00
23240;PMS7003;11789;53.482;9.862;2023-10-08T14:03:29;0.00;0.00;0.00
23240;PMS7003;11789;53.482;9.862;2023-10-08T14:05:58;0.75;0.75;0.75
23240;PMS7003;11789;53.482;9.862;2023-10-08T14:08:29;0.00;0.00;0.00
23240;PMS7003;11789;53.482;9.862;2023-10-08T14:10:56;1.00;1.00;1.00
23240;PMS7003;11789;53.482;9.862;2023-10-08T14:13:31;1.00;1.00;0.00
23240;PMS7003;11789;53.482;9.862;2023-10-08T14:16:00;1.75;0.00;0.00
23240;PMS7003;11789;53.482;9.862;2023-10-08T14:18:33;1.25;1.00;0.00
23240;PMS7003;11789;53.482;9.862;2023-10-08T14:21:08;0.00;0.00;0.00
23240;PMS7003;11789;53.482;9.862;2023-10-08T14:23:38;0.00;0.00;0.00
23240;PMS7003;11789;53.482;9.862;2023-10-08T14:26:07;0.00;0.00;0.00
23240;PMS7003;11789;53.482;9.862;2023-10-08T14:28:37;0.00;0.00;0.00
23240;PMS7003;11789;53.482;9.862;2023-10-08T14:31:08;0.50;0.50;0.00
23240;PMS7003;11789;53.482;9.862;2023-10-08T14:33:40;0.00;0.00;0.00
23240;PMS7003;11789;53.482;9.862;2023-10-08T14:36:09;0.00;0.00;0.00
23240;PMS7003;11789;53.482;9.862;2023-10-08T14:38:53;0.25;0.00;0.00
23240;PMS7003;11789;53.482;9.862;2023-10-08T14:41:37;0.00;0.00;0.00
23240;PMS7003;11789;53.482;9.862;2023-10-08T14:44:21;1.00;1.00;0.00
23240;PMS7003;11789;53.482;9.862;2023-10-08T14:46:48;0.00;0.00;0.00
23240;PMS7003;11789;53.482;9.862;2023-10-08T14:49:15;0.00;0.00;0.00
23240;PMS7003;11789;53.482;9.862;2023-10-08T14:51:41;0.75;0.75;0.75
23240;PMS7003;11789;53.482;9.862;2023-10-08T14:54:07;0.75;0.25;0.00